sensor_id;sensor_type;location;lat;lon;timestamp;pressure;altitude;pressure_sealevel;temperature;humidity
64675;BME280;51090;51.512;11.332;2024-03-25T00:01:37;97940.91;;;5.72;100.00
64675;BME280;51090;51.512;11.332;2024-03-25T00:04:03;97947.44;;;5.76;100.00
64675;BME280;51090;51.512;11.332;2024-03-25T00:06:30;97949.47;;;5.80;100.00
64675;BME280;51090;51.512;11.332;2024-03-25T00:09:00;97941.00;;;5.85;100.00
64675;BME280;51090;51.512;11.332;2024-03-25T00:11:26;97954.78;;;5.87;100.00
64675;BME280;51090;51.512;11.332;2024-03-25T00:13:53;97950.97;;;5.89;100.00
64675;BME280;51090;51.512;11.332;2024-03-25T00:16:22;97953.59;;;5.89;100.00
64675;BME280;51090;51.512;11.332;2024-03-25T00:18:48;97953.88;;;5.95;100.00
64675;BME280;51090;51.512;11.332;2024-03-25T00:21:14;97959.38;;;6.00;100.00
64675;BME280;51090;51.512;11.332;2024-03-25T00:23:40;97963.44;;;6.02;100.00
64675;BME280;51090;51.512;11.332;2024-03-25T00:26:06;97959.78;;;6.03;100.00
64675;BME280;51090;51.512;11.332;2024-03-25T00:28:32;97965.50;;;6.07;100.00
64675;BME280;51090;51.512;11.332;2024-03-25T00:30:58;97970.38;;;6.10;100.00
64675;BME280;51090;51.512;11.332;2024-03-25T00:33:25;97965.09;;;6.10;100.00
64675;BME280;51090;51.512;11.332;2024-03-25T00:35:51;97969.81;;;6.15;100.00
64675;BME280;51090;51.512;11.332;2024-03-25T00:38:18;97974.03;;;6.16;100.00
64675;BME280;51090;51.512;11.332;2024-03-25T00:40:45;97974.50;;;6.19;100.00
64675;BME280;51090;51.512;11.332;2024-03-25T00:43:11;97979.38;;;6.22;100.00
64675;BME280;51090;51.512;11.332;2024-03-25T00:45:38;97979.38;;;6.22;100.00
64675;BME280;51090;51.512;11.332;2024-03-25T00:48:04;97965.41;;;6.22;100.00
64675;BME280;51090;51.512;11.332;2024-03-25T00:50:31;97977.72;;;6.21;100.00
64675;BME280;51090;51.512;11.332;2024-03-25T00:52:58;97981.75;;;6.17;100.00
64675;BME280;51090;51.512;11.332;2024-03-25T00:55:25;97987.78;;;6.11;100.00
64675;BME280;51090;51.512;11.332;2024-03-25T00:57:51;97985.84;;;5.98;100.00
64675;BME280;51090;51.512;11.332;2024-03-25T01:00:17;97986.16;;;6.10;100.00
64675;BME280;51090;51.512;11.332;2024-03-25T01:02:44;97988.72;;;6.03;100.00
64675;BME280;51090;51.512;11.332;2024-03-25T01:05:10;97994.63;;;6.05;100.00
64675;BME280;51090;51.512;11.332;2024-03-25T01:07:36;97991.97;;;5.99;100.00
64675;BME280;51090;51.512;11.332;2024-03-25T01:10:02;97994.50;;;5.92;100.00
64675;BME280;51090;51.512;11.332;2024-03-25T01:12:28;97995.03;;;5.81;100.00
64675;BME280;51090;51.512;11.332;2024-03-25T01:14:54;98013.19;;;5.76;100.00
64675;BME280;51090;51.512;11.332;2024-03-25T01:17:20;98011.03;;;5.64;100.00
64675;BME280;51090;51.512;11.332;2024-03-25T01:19:46;98010.78;;;5.59;100.00
64675;BME280;51090;51.512;11.332;2024-03-25T01:22:12;98019.25;;;5.55;100.00
64675;BME280;51090;51.512;11.332;2024-03-25T01:24:38;98022.31;;;5.58;100.00
64675;BME280;51090;51.512;11.332;2024-03-25T01:27:05;98017.31;;;5.63;100.00
64675;BME280;51090;51.512;11.332;2024-03-25T01:29:32;98015.00;;;5.54;100.00
64675;BME280;51090;51.512;11.332;2024-03-25T01:31:58;98011.59;;;5.60;100.00
64675;BME280;51090;51.512;11.332;2024-03-25T01:34:25;98020.69;;;5.79;100.00
64675;BME280;51090;51.512;11.332;2024-03-25T01:36:51;98018.69;;;5.81;100.00
64675;BME280;51090;51.512;11.332;2024-03-25T01:39:20;98017.28;;;5.85;100.00
64675;BME280;51090;51.512;11.332;2024-03-25T01:41:47;98010.03;;;5.87;100.00
64675;BME280;51090;51.512;11.332;2024-03-25T01:44:13;98020.94;;;5.84;100.00
64675;BME280;51090;51.512;11.332;2024-03-25T01:46:40;98028.19;;;5.82;100.00
64675;BME280;51090;51.512;11.332;2024-03-25T01:49:07;98025.00;;;5.86;100.00
64675;BME280;51090;51.512;11.332;2024-03-25T01:51:34;98032.34;;;5.91;100.00
64675;BME280;51090;51.512;11.332;2024-03-25T01:54:01;98029.41;;;6.01;100.00
64675;BME280;51090;51.512;11.332;2024-03-25T01:56:31;98023.19;;;6.08;100.00
64675;BME280;51090;51.512;11.332;2024-03-25T01:58:59;98029.31;;;6.16;100.00
64675;BME280;51090;51.512;11.332;2024-03-25T02:01:26;98032.19;;;6.21;100.00
64675;BME280;51090;51.512;11.332;2024-03-25T02:03:54;98032.81;;;6.23;100.00
64675;BME280;51090;51.512;11.332;2024-03-25T02:06:21;98027.72;;;6.21;100.00
64675;BME280;51090;51.512;11.332;2024-03-25T02:08:50;98023.06;;;6.17;100.00
64675;BME280;51090;51.512;11.332;2024-03-25T02:11:16;98024.69;;;6.18;100.00
64675;BME280;51090;51.512;11.332;2024-03-25T02:13:43;98023.66;;;6.19;100.00
64675;BME280;51090;51.512;11.332;2024-03-25T02:16:09;98028.56;;;6.22;100.00
64675;BME280;51090;51.512;11.332;2024-03-25T02:18:36;98026.75;;;6.22;100.00
64675;BME280;51090;51.512;11.332;2024-03-25T02:21:02;98028.94;;;6.19;100.00
64675;BME280;51090;51.512;11.332;2024-03-25T02:23:29;98033.72;;;6.08;100.00
64675;BME280;51090;51.512;11.332;2024-03-25T02:25:55;98036.09;;;6.03;100.00
64675;BME280;51090;51.512;11.332;2024-03-25T02:28:21;98048.06;;;6.06;100.00
64675;BME280;51090;51.512;11.332;2024-03-25T02:30:48;98040.16;;;6.06;100.00
64675;BME280;51090;51.512;11.332;2024-03-25T02:33:14;98047.88;;;6.07;100.00
64675;BME280;51090;51.512;11.332;2024-03-25T02:35:41;98046.69;;;6.10;100.00
64675;BME280;51090;51.512;11.332;2024-03-25T02:38:08;98052.19;;;6.15;100.00
64675;BME280;51090;51.512;11.332;2024-03-25T02:40:35;98057.06;;;6.18;100.00
64675;BME280;51090;51.512;11.332;2024-03-25T02:43:02;98063.16;;;6.19;100.00
64675;BME280;51090;51.512;11.332;2024-03-25T02:45:29;98052.84;;;6.17;100.00
64675;BME280;51090;51.512;11.332;2024-03-25T02:47:55;98060.03;;;6.08;100.00
64675;BME280;51090;51.512;11.332;2024-03-25T02:50:21;98052.91;;;6.02;100.00
64675;BME280;51090;51.512;11.332;2024-03-25T02:52:48;98055.00;;;5.92;100.00
64675;BME280;51090;51.512;11.332;2024-03-25T02:55:14;98064.03;;;5.83;100.00
64675;BME280;51090;51.512;11.332;2024-03-25T02:57:40;98059.09;;;5.73;100.00
64675;BME280;51090;51.512;11.332;2024-03-25T03:00:08;98066.47;;;5.63;100.00
64675;BME280;51090;51.512;11.332;2024-03-25T03:02:35;98065.13;;;5.52;100.00
64675;BME280;51090;51.512;11.332;2024-03-25T03:05:01;98073.94;;;5.44;100.00
64675;BME280;51090;51.512;11.332;2024-03-25T03:07:29;98074.88;;;5.37;100.00
64675;BME280;51090;51.512;11.332;2024-03-25T03:09:55;98081.88;;;5.30;100.00
64675;BME280;51090;51.512;11.332;2024-03-25T03:12:22;98088.31;;;5.27;100.00
64675;BME280;51090;51.512;11.332;2024-03-25T03:14:48;98095.56;;;5.25;100.00
64675;BME280;51090;51.512;11.332;2024-03-25T03:17:14;98101.09;;;5.30;100.00
64675;BME280;51090;51.512;11.332;2024-03-25T03:19:40;98102.72;;;5.31;100.00
64675;BME280;51090;51.512;11.332;2024-03-25T03:22:06;98093.72;;;5.40;100.00
64675;BME280;51090;51.512;11.332;2024-03-25T03:24:32;98094.28;;;5.21;100.00
64675;BME280;51090;51.512;11.332;2024-03-25T03:26:59;98101.25;;;5.43;100.00
64675;BME280;51090;51.512;11.332;2024-03-25T03:29:25;98104.13;;;5.49;100.00
64675;BME280;51090;51.512;11.332;2024-03-25T03:31:51;98110.66;;;5.53;100.00
64675;BME280;51090;51.512;11.332;2024-03-25T03:34:17;98116.34;;;5.56;100.00
64675;BME280;51090;51.512;11.332;2024-03-25T03:36:43;98123.31;;;5.64;100.00
64675;BME280;51090;51.512;11.332;2024-03-25T03:39:09;98131.09;;;5.72;100.00
64675;BME280;51090;51.512;11.332;2024-03-25T03:41:36;98127.28;;;5.75;100.00
64675;BME280;51090;51.512;11.332;2024-03-25T03:44:02;98126.59;;;5.87;100.00
64675;BME280;51090;51.512;11.332;2024-03-25T03:46:28;98138.31;;;5.85;100.00
64675;BME280;51090;51.512;11.332;2024-03-25T03:48:54;98134.44;;;5.81;100.00
64675;BME280;51090;51.512;11.332;2024-03-25T03:51:20;98145.69;;;5.75;100.00
64675;BME280;51090;51.512;11.332;2024-03-25T03:53:46;98145.97;;;5.65;100.00
64675;BME280;51090;51.512;11.332;2024-03-25T03:56:12;98142.75;;;5.63;100.00
64675;BME280;51090;51.512;11.332;2024-03-25T03:58:38;98154.78;;;5.57;100.00
64675;BME280;51090;51.512;11.332;2024-03-25T04:01:04;98160.81;;;5.51;100.00
64675;BME280;51090;51.512;11.332;2024-03-25T04:03:39;98158.28;;;5.43;100.00
64675;BME280;51090;51.512;11.332;2024-03-25T04:06:10;98164.25;;;5.37;100.00
64675;BME280;51090;51.512;11.332;2024-03-25T04:08:37;98162.00;;;5.34;100.00
64675;BME280;51090;51.512;11.332;2024-03-25T04:11:04;98161.56;;;5.30;100.00
64675;BME280;51090;51.512;11.332;2024-03-25T04:13:32;98153.84;;;5.29;100.00
64675;BME280;51090;51.512;11.332;2024-03-25T04:16:08;98164.06;;;5.23;100.00
64675;BME280;51090;51.512;11.332;2024-03-25T04:18:35;98169.06;;;5.18;100.00
64675;BME280;51090;51.512;11.332;2024-03-25T04:21:01;98161.91;;;5.12;100.00
64675;BME280;51090;51.512;11.332;2024-03-25T04:23:27;98169.16;;;5.10;100.00
64675;BME280;51090;51.512;11.332;2024-03-25T04:25:54;98169.69;;;5.06;100.00
64675;BME280;51090;51.512;11.332;2024-03-25T04:28:20;98171.50;;;5.05;100.00
64675;BME280;51090;51.512;11.332;2024-03-25T04:30:53;98176.22;;;5.10;100.00
64675;BME280;51090;51.512;11.332;2024-03-25T04:33:19;98187.81;;;5.15;100.00
64675;BME280;51090;51.512;11.332;2024-03-25T04:35:46;98183.47;;;5.22;100.00
64675;BME280;51090;51.512;11.332;2024-03-25T04:38:13;98195.63;;;5.23;100.00
64675;BME280;51090;51.512;11.332;2024-03-25T04:40:39;98199.69;;;5.26;100.00
64675;BME280;51090;51.512;11.332;2024-03-25T04:43:05;98201.94;;;5.29;100.00
64675;BME280;51090;51.512;11.332;2024-03-25T04:45:32;98204.53;;;5.37;100.00
64675;BME280;51090;51.512;11.332;2024-03-25T04:47:58;98207.16;;;5.37;100.00
64675;BME280;51090;51.512;11.332;2024-03-25T04:50:24;98211.75;;;5.35;100.00
64675;BME280;51090;51.512;11.332;2024-03-25T04:52:50;98212.03;;;5.26;100.00
64675;BME280;51090;51.512;11.332;2024-03-25T04:55:16;98223.91;;;5.21;100.00
64675;BME280;51090;51.512;11.332;2024-03-25T04:57:42;98221.28;;;5.21;100.00
64675;BME280;51090;51.512;11.332;2024-03-25T05:00:09;98232.41;;;5.23;100.00
64675;BME280;51090;51.512;11.332;2024-03-25T05:02:38;98228.44;;;5.28;100.00
64675;BME280;51090;51.512;11.332;2024-03-25T05:05:05;98227.06;;;5.32;100.00
64675;BME280;51090;51.512;11.332;2024-03-25T05:07:33;98229.53;;;5.33;100.00
64675;BME280;51090;51.512;11.332;2024-03-25T05:09:59;98227.00;;;5.40;100.00
64675;BME280;51090;51.512;11.332;2024-03-25T05:12:26;98229.06;;;5.44;100.00
64675;BME280;51090;51.512;11.332;2024-03-25T05:14:58;98236.41;;;5.49;100.00
64675;BME280;51090;51.512;11.332;2024-03-25T05:17:26;98232.81;;;5.50;100.00
64675;BME280;51090;51.512;11.332;2024-03-25T05:19:52;98238.06;;;5.50;100.00
64675;BME280;51090;51.512;11.332;2024-03-25T05:22:18;98240.06;;;5.48;100.00
64675;BME280;51090;51.512;11.332;2024-03-25T05:24:44;98246.94;;;5.49;100.00
64675;BME280;51090;51.512;11.332;2024-03-25T05:27:10;98226.34;;;5.38;100.00
64675;BME280;51090;51.512;11.332;2024-03-25T05:29:36;98250.56;;;5.63;100.00
64675;BME280;51090;51.512;11.332;2024-03-25T05:32:03;98259.53;;;5.68;100.00
64675;BME280;51090;51.512;11.332;2024-03-25T05:34:29;98259.00;;;5.73;100.00
64675;BME280;51090;51.512;11.332;2024-03-25T05:36:57;98266.31;;;5.78;100.00
64675;BME280;51090;51.512;11.332;2024-03-25T05:39:23;98264.34;;;5.80;100.00
64675;BME280;51090;51.512;11.332;2024-03-25T05:41:49;98270.34;;;5.74;100.00
64675;BME280;51090;51.512;11.332;2024-03-25T05:44:16;98274.50;;;5.68;100.00
64675;BME280;51090;51.512;11.332;2024-03-25T05:46:43;98264.16;;;5.66;100.00
64675;BME280;51090;51.512;11.332;2024-03-25T05:49:09;98267.81;;;5.65;100.00
64675;BME280;51090;51.512;11.332;2024-03-25T05:51:35;98258.53;;;5.70;100.00
64675;BME280;51090;51.512;11.332;2024-03-25T05:54:01;98256.97;;;5.75;100.00
64675;BME280;51090;51.512;11.332;2024-03-25T05:56:28;98259.06;;;5.80;100.00
64675;BME280;51090;51.512;11.332;2024-03-25T05:58:57;98263.78;;;5.84;100.00
64675;BME280;51090;51.512;11.332;2024-03-25T06:01:24;98267.22;;;5.85;100.00
64675;BME280;51090;51.512;11.332;2024-03-25T06:03:50;98276.13;;;5.84;100.00
64675;BME280;51090;51.512;11.332;2024-03-25T06:06:16;98284.03;;;5.84;100.00
64675;BME280;51090;51.512;11.332;2024-03-25T06:08:43;98290.91;;;5.85;100.00
64675;BME280;51090;51.512;11.332;2024-03-25T06:11:09;98294.44;;;5.92;100.00
64675;BME280;51090;51.512;11.332;2024-03-25T06:13:35;98301.91;;;6.03;100.00
64675;BME280;51090;51.512;11.332;2024-03-25T06:16:02;98305.16;;;6.20;100.00
64675;BME280;51090;51.512;11.332;2024-03-25T06:18:30;98308.03;;;6.40;100.00
64675;BME280;51090;51.512;11.332;2024-03-25T06:20:56;98313.06;;;6.57;100.00
64675;BME280;51090;51.512;11.332;2024-03-25T06:23:26;98309.09;;;6.67;100.00
64675;BME280;51090;51.512;11.332;2024-03-25T06:25:53;98314.97;;;6.84;100.00
64675;BME280;51090;51.512;11.332;2024-03-25T06:28:20;98317.88;;;6.96;100.00
64675;BME280;51090;51.512;11.332;2024-03-25T06:30:47;98317.78;;;7.04;100.00
64675;BME280;51090;51.512;11.332;2024-03-25T06:33:32;98324.34;;;7.15;100.00
64675;BME280;51090;51.512;11.332;2024-03-25T06:36:18;98321.97;;;7.20;100.00
64675;BME280;51090;51.512;11.332;2024-03-25T06:38:44;98326.72;;;7.31;100.00
64675;BME280;51090;51.512;11.332;2024-03-25T06:41:10;98329.19;;;7.39;100.00
64675;BME280;51090;51.512;11.332;2024-03-25T06:43:37;98329.91;;;7.48;100.00
64675;BME280;51090;51.512;11.332;2024-03-25T06:46:07;98324.84;;;7.53;100.00
64675;BME280;51090;51.512;11.332;2024-03-25T06:48:34;98321.50;;;7.66;100.00
64675;BME280;51090;51.512;11.332;2024-03-25T06:51:03;98329.88;;;7.76;100.00
64675;BME280;51090;51.512;11.332;2024-03-25T06:53:30;98332.34;;;7.84;100.00
64675;BME280;51090;51.512;11.332;2024-03-25T06:55:58;98327.53;;;7.95;100.00
64675;BME280;51090;51.512;11.332;2024-03-25T06:58:25;98330.81;;;8.03;100.00
64675;BME280;51090;51.512;11.332;2024-03-25T07:00:52;98328.03;;;8.12;100.00
64675;BME280;51090;51.512;11.332;2024-03-25T07:03:20;98335.59;;;8.21;100.00
64675;BME280;51090;51.512;11.332;2024-03-25T07:05:47;98337.81;;;8.24;100.00
64675;BME280;51090;51.512;11.332;2024-03-25T07:08:16;98341.09;;;8.26;100.00
64675;BME280;51090;51.512;11.332;2024-03-25T07:10:42;98347.94;;;8.14;100.00
64675;BME280;51090;51.512;11.332;2024-03-25T07:13:09;98353.00;;;8.09;100.00
64675;BME280;51090;51.512;11.332;2024-03-25T07:15:35;98345.81;;;7.96;100.00
64675;BME280;51090;51.512;11.332;2024-03-25T07:18:01;98354.53;;;7.90;100.00
64675;BME280;51090;51.512;11.332;2024-03-25T07:20:27;98354.69;;;7.89;100.00
64675;BME280;51090;51.512;11.332;2024-03-25T07:22:55;98370.41;;;7.97;100.00
64675;BME280;51090;51.512;11.332;2024-03-25T07:25:23;98359.97;;;7.82;100.00
64675;BME280;51090;51.512;11.332;2024-03-25T07:27:50;98379.16;;;8.04;100.00
64675;BME280;51090;51.512;11.332;2024-03-25T07:30:16;98368.66;;;8.11;100.00
64675;BME280;51090;51.512;11.332;2024-03-25T07:32:43;98380.28;;;8.23;100.00
64675;BME280;51090;51.512;11.332;2024-03-25T07:35:11;98384.16;;;8.27;100.00
64675;BME280;51090;51.512;11.332;2024-03-25T07:37:40;98377.44;;;8.24;100.00
64675;BME280;51090;51.512;11.332;2024-03-25T07:40:07;98383.00;;;8.36;100.00
64675;BME280;51090;51.512;11.332;2024-03-25T07:42:35;98384.69;;;8.44;100.00
64675;BME280;51090;51.512;11.332;2024-03-25T07:45:01;98382.91;;;8.51;100.00
64675;BME280;51090;51.512;11.332;2024-03-25T07:47:28;98383.94;;;8.57;100.00
64675;BME280;51090;51.512;11.332;2024-03-25T07:49:54;98386.75;;;8.55;100.00
64675;BME280;51090;51.512;11.332;2024-03-25T07:52:20;98389.47;;;8.68;100.00
64675;BME280;51090;51.512;11.332;2024-03-25T07:54:46;98392.59;;;8.92;100.00
64675;BME280;51090;51.512;11.332;2024-03-25T07:57:13;98390.38;;;9.09;100.00
64675;BME280;51090;51.512;11.332;2024-03-25T07:59:39;98393.44;;;9.19;100.00
64675;BME280;51090;51.512;11.332;2024-03-25T08:02:05;98398.13;;;9.37;100.00
64675;BME280;51090;51.512;11.332;2024-03-25T08:04:31;98399.16;;;9.63;100.00
64675;BME280;51090;51.512;11.332;2024-03-25T08:06:57;98391.84;;;9.85;100.00
64675;BME280;51090;51.512;11.332;2024-03-25T08:09:23;98396.50;;;10.02;100.00
64675;BME280;51090;51.512;11.332;2024-03-25T08:11:49;98405.22;;;10.16;100.00
64675;BME280;51090;51.512;11.332;2024-03-25T08:14:15;98375.94;;;9.85;100.00
64675;BME280;51090;51.512;11.332;2024-03-25T08:16:41;98405.88;;;9.92;100.00
64675;BME280;51090;51.512;11.332;2024-03-25T08:19:07;98406.91;;;9.91;100.00
64675;BME280;51090;51.512;11.332;2024-03-25T08:21:33;98404.03;;;9.99;100.00
64675;BME280;51090;51.512;11.332;2024-03-25T08:23:59;98414.19;;;10.15;100.00
64675;BME280;51090;51.512;11.332;2024-03-25T08:26:25;98412.16;;;10.11;100.00
64675;BME280;51090;51.512;11.332;2024-03-25T08:28:51;98406.28;;;9.95;100.00
64675;BME280;51090;51.512;11.332;2024-03-25T08:31:17;98414.78;;;10.24;100.00
64675;BME280;51090;51.512;11.332;2024-03-25T08:33:43;98406.19;;;10.49;100.00
64675;BME280;51090;51.512;11.332;2024-03-25T08:36:09;98402.31;;;10.51;100.00
64675;BME280;51090;51.512;11.332;2024-03-25T08:38:35;98410.06;;;10.46;100.00
64675;BME280;51090;51.512;11.332;2024-03-25T08:41:01;98412.13;;;10.37;100.00
64675;BME280;51090;51.512;11.332;2024-03-25T08:43:27;98404.81;;;10.19;99.57
64675;BME280;51090;51.512;11.332;2024-03-25T08:45:53;98415.06;;;9.89;100.00
64675;BME280;51090;51.512;11.332;2024-03-25T08:48:19;98389.38;;;9.63;100.00
64675;BME280;51090;51.512;11.332;2024-03-25T08:50:45;98420.97;;;9.71;100.00
64675;BME280;51090;51.512;11.332;2024-03-25T08:53:11;98422.59;;;9.72;100.00
64675;BME280;51090;51.512;11.332;2024-03-25T08:55:37;98426.03;;;9.86;100.00
64675;BME280;51090;51.512;11.332;2024-03-25T08:58:03;98420.53;;;10.01;100.00
64675;BME280;51090;51.512;11.332;2024-03-25T09:00:30;98420.69;;;10.26;100.00
64675;BME280;51090;51.512;11.332;2024-03-25T09:02:56;98418.03;;;10.39;98.47
64675;BME280;51090;51.512;11.332;2024-03-25T09:05:22;98401.56;;;10.17;93.49
64675;BME280;51090;51.512;11.332;2024-03-25T09:07:51;98414.59;;;10.19;91.63
64675;BME280;51090;51.512;11.332;2024-03-25T09:10:21;98417.66;;;10.22;100.00
64675;BME280;51090;51.512;11.332;2024-03-25T09:13:06;98418.25;;;10.24;100.00
64675;BME280;51090;51.512;11.332;2024-03-25T09:15:32;98427.63;;;10.20;93.28
64675;BME280;51090;51.512;11.332;2024-03-25T09:17:58;98424.56;;;10.17;94.66
64675;BME280;51090;51.512;11.332;2024-03-25T09:20:24;98407.25;;;10.21;94.18
64675;BME280;51090;51.512;11.332;2024-03-25T09:22:52;98409.31;;;10.12;85.42
64675;BME280;51090;51.512;11.332;2024-03-25T09:25:18;98414.19;;;10.09;95.51
64675;BME280;51090;51.512;11.332;2024-03-25T09:27:48;98413.63;;;9.87;90.87
64675;BME280;51090;51.512;11.332;2024-03-25T09:30:15;98420.78;;;9.66;91.63
64675;BME280;51090;51.512;11.332;2024-03-25T09:32:42;98429.91;;;9.70;99.02
64675;BME280;51090;51.512;11.332;2024-03-25T09:35:09;98429.53;;;9.67;95.99
64675;BME280;51090;51.512;11.332;2024-03-25T09:37:35;98424.44;;;9.72;92.86
64675;BME280;51090;51.512;11.332;2024-03-25T09:40:02;98423.41;;;9.79;97.20
64675;BME280;51090;51.512;11.332;2024-03-25T09:42:48;98415.44;;;10.06;98.25
64675;BME280;51090;51.512;11.332;2024-03-25T09:45:18;98427.63;;;10.40;99.20
64675;BME280;51090;51.512;11.332;2024-03-25T09:47:46;98416.94;;;10.67;98.96
64675;BME280;51090;51.512;11.332;2024-03-25T09:50:14;98415.78;;;10.95;100.00
64675;BME280;51090;51.512;11.332;2024-03-25T09:52:48;98415.09;;;11.06;100.00
64675;BME280;51090;51.512;11.332;2024-03-25T09:55:14;98414.56;;;10.90;91.39
64675;BME280;51090;51.512;11.332;2024-03-25T09:57:42;98408.38;;;10.65;92.78
64675;BME280;51090;51.512;11.332;2024-03-25T10:00:09;98415.50;;;10.64;98.31
64675;BME280;51090;51.512;11.332;2024-03-25T10:02:38;98419.63;;;10.47;89.43
64675;BME280;51090;51.512;11.332;2024-03-25T10:05:05;98423.53;;;10.24;91.98
64675;BME280;51090;51.512;11.332;2024-03-25T10:07:33;98433.78;;;10.01;93.69
64675;BME280;51090;51.512;11.332;2024-03-25T10:09:59;98440.50;;;9.97;100.00
64675;BME280;51090;51.512;11.332;2024-03-25T10:12:25;98447.22;;;9.73;98.12
64675;BME280;51090;51.512;11.332;2024-03-25T10:14:52;98447.25;;;9.79;100.00
64675;BME280;51090;51.512;11.332;2024-03-25T10:17:18;98446.41;;;9.92;100.00
64675;BME280;51090;51.512;11.332;2024-03-25T10:19:44;98445.59;;;10.05;95.70
64675;BME280;51090;51.512;11.332;2024-03-25T10:22:10;98442.53;;;10.28;99.40
64675;BME280;51090;51.512;11.332;2024-03-25T10:24:44;98437.56;;;10.52;100.00
64675;BME280;51090;51.512;11.332;2024-03-25T10:27:21;98449.50;;;10.81;94.09
64675;BME280;51090;51.512;11.332;2024-03-25T10:29:53;98441.53;;;10.81;93.17
64675;BME280;51090;51.512;11.332;2024-03-25T10:32:21;98439.94;;;10.80;91.77
64675;BME280;51090;51.512;11.332;2024-03-25T10:34:47;98432.34;;;10.83;92.74
64675;BME280;51090;51.512;11.332;2024-03-25T10:37:14;98444.78;;;10.89;96.84
64675;BME280;51090;51.512;11.332;2024-03-25T10:39:49;98451.31;;;10.87;98.20
64675;BME280;51090;51.512;11.332;2024-03-25T10:42:20;98448.25;;;10.83;97.80
64675;BME280;51090;51.512;11.332;2024-03-25T10:44:48;98442.13;;;10.89;100.00
64675;BME280;51090;51.512;11.332;2024-03-25T10:47:21;98447.13;;;11.11;100.00
64675;BME280;51090;51.512;11.332;2024-03-25T10:49:56;98455.00;;;11.24;95.73
64675;BME280;51090;51.512;11.332;2024-03-25T10:52:22;98435.44;;;11.19;90.46
64675;BME280;51090;51.512;11.332;2024-03-25T10:54:49;98439.00;;;11.38;89.46
64675;BME280;51090;51.512;11.332;2024-03-25T10:57:16;98437.56;;;11.67;95.30
64675;BME280;51090;51.512;11.332;2024-03-25T10:59:46;98434.16;;;11.85;93.49
64675;BME280;51090;51.512;11.332;2024-03-25T11:02:12;98437.47;;;11.80;91.53
64675;BME280;51090;51.512;11.332;2024-03-25T11:04:39;98441.00;;;11.74;93.11
64675;BME280;51090;51.512;11.332;2024-03-25T11:07:13;98441.38;;;11.77;86.20
64675;BME280;51090;51.512;11.332;2024-03-25T11:09:40;98439.13;;;11.49;81.72
64675;BME280;51090;51.512;11.332;2024-03-25T11:12:09;98439.38;;;11.41;83.04
64675;BME280;51090;51.512;11.332;2024-03-25T11:14:35;98438.31;;;11.49;87.40
64675;BME280;51090;51.512;11.332;2024-03-25T11:17:02;98432.03;;;11.43;86.07
64675;BME280;51090;51.512;11.332;2024-03-25T11:19:29;98433.31;;;11.34;82.72
64675;BME280;51090;51.512;11.332;2024-03-25T11:22:08;98433.88;;;11.68;95.53
64675;BME280;51090;51.512;11.332;2024-03-25T11:24:34;98433.47;;;11.96;91.96
64675;BME280;51090;51.512;11.332;2024-03-25T11:27:06;98420.84;;;11.91;85.35
64675;BME280;51090;51.512;11.332;2024-03-25T11:29:33;98428.28;;;12.08;91.37
64675;BME280;51090;51.512;11.332;2024-03-25T11:32:04;98415.59;;;12.28;91.27
64675;BME280;51090;51.512;11.332;2024-03-25T11:34:30;98405.63;;;12.42;87.46
64675;BME280;51090;51.512;11.332;2024-03-25T11:36:56;98431.75;;;12.63;89.63
64675;BME280;51090;51.512;11.332;2024-03-25T11:39:24;98430.94;;;12.63;89.48
64675;BME280;51090;51.512;11.332;2024-03-25T11:41:54;98429.41;;;12.55;76.68
64675;BME280;51090;51.512;11.332;2024-03-25T11:44:20;98410.72;;;12.44;82.79
64675;BME280;51090;51.512;11.332;2024-03-25T11:46:49;98426.44;;;12.63;90.61
64675;BME280;51090;51.512;11.332;2024-03-25T11:49:16;98425.75;;;12.86;94.26
64675;BME280;51090;51.512;11.332;2024-03-25T11:51:44;98422.03;;;13.06;94.15
64675;BME280;51090;51.512;11.332;2024-03-25T11:54:12;98411.31;;;12.94;80.85
64675;BME280;51090;51.512;11.332;2024-03-25T11:56:38;98411.00;;;12.54;79.93
64675;BME280;51090;51.512;11.332;2024-03-25T11:59:04;98419.34;;;12.39;82.92
64675;BME280;51090;51.512;11.332;2024-03-25T12:01:33;98431.25;;;11.93;73.99
64675;BME280;51090;51.512;11.332;2024-03-25T12:04:18;98444.81;;;11.53;76.63
64675;BME280;51090;51.512;11.332;2024-03-25T12:06:47;98433.34;;;11.27;81.45
64675;BME280;51090;51.512;11.332;2024-03-25T12:09:13;98418.13;;;11.09;78.07
64675;BME280;51090;51.512;11.332;2024-03-25T12:11:58;98422.00;;;11.14;81.22
64675;BME280;51090;51.512;11.332;2024-03-25T12:14:25;98406.94;;;11.07;77.08
64675;BME280;51090;51.512;11.332;2024-03-25T12:16:55;98425.59;;;11.26;79.58
64675;BME280;51090;51.512;11.332;2024-03-25T12:19:24;98430.03;;;11.32;77.66
64675;BME280;51090;51.512;11.332;2024-03-25T12:21:50;98433.81;;;11.49;85.89
64675;BME280;51090;51.512;11.332;2024-03-25T12:24:16;98409.88;;;11.56;83.13
64675;BME280;51090;51.512;11.332;2024-03-25T12:26:44;98411.72;;;11.81;87.38
64675;BME280;51090;51.512;11.332;2024-03-25T12:29:10;98408.53;;;11.72;77.33
64675;BME280;51090;51.512;11.332;2024-03-25T12:31:36;98418.69;;;11.50;79.62
64675;BME280;51090;51.512;11.332;2024-03-25T12:34:08;98415.25;;;11.18;80.41
64675;BME280;51090;51.512;11.332;2024-03-25T12:36:35;98415.06;;;11.13;77.83
64675;BME280;51090;51.512;11.332;2024-03-25T12:39:02;98405.31;;;11.06;77.68
64675;BME280;51090;51.512;11.332;2024-03-25T12:41:28;98416.53;;;11.02;75.26
64675;BME280;51090;51.512;11.332;2024-03-25T12:43:55;98408.28;;;10.85;78.37
64675;BME280;51090;51.512;11.332;2024-03-25T12:46:21;98403.97;;;10.90;81.47
64675;BME280;51090;51.512;11.332;2024-03-25T12:48:47;98402.09;;;10.98;74.62
64675;BME280;51090;51.512;11.332;2024-03-25T12:51:15;98406.88;;;11.14;74.21